< < Back
Terminal Aerodrome Forecast


Current Version              Previous Versions:   1  2  3  4  5  6  7  8  9  

Terminal Aerodrome Forecast

284
FTUS42 KILM 012326
TAFFLO
TAF
KFLO 012326Z 0200/0224 24007KT P6SM SCT025 SCT250
     FM020200 23005KT P6SM VCSH SCT045 BKN080
     FM020700 26004KT P6SM SCT060 BKN200=

Latest METAR

856
SAUS70 KWBC 021200
MTRFLO
METAR KFLO 021153Z 24008KT 8SM CLR 24/21 A2998 RMK AO2 SLP147 T02390206
10250 20239 53010


USA.gov is the U.S. government's official web portal to all federal, state and local government web resources and services.